Bloomfield, Connecticut
Current Conditions -  °F | °C
As of 6:51 AM on Friday 21 Nov 2014 (Local Time) from KBDL Reporting Station
Few Clouds Few Clouds  
Wind Chill: 16°   Ceiling: Unl
Heat Index: 24°   Visibility: 10mi
Dew Point:   Wind: 7mph
Humidity: 51%   Direction: 290°WNW
Pressure: 30.09"   Gusts: NA
Location:  41.83°N, 72.73°W
Report Text: KBDL 211151Z 29006KT 10SM FEW035 M04/M13 A3009 RMK AO2 SLP189 T10441133 11022 21044 51033
Loading
Personal Weather Stations






























Interactive Weather Map New forecast layout! Learn more

10-Day Weather Forecast

Advertisements
Track Severe Weather on mobile